Georgetown, SC

7:39 AM EST on February 09, 2016 (GMT -0500)
NERRS | | Change Station
CLOSE
Current Station
Personal Weather Station
Location: Georgetown, SC
Elevation: 2 ft
Nearby Weather Stations
Active Advisory: Flood Warning

Elev 2 ft 33.35 °N, 79.19 °W | Updated 54 minutes ago

Clear
Clear
38.0 °F
Feels Like 31 °F
N
11.0
Wind Variable Wind from West
Gusts 0.0 mph

Today
High -- | Low -- °F
--% Chance of Precip.
Yesterday
High -- | Low -- °F
Precip. -- in
Pressure 29.80 in
Visibility 10.0 miles
Clouds Clear
Windchill 31 °F
Dew Point 29.0 °F
Humidity 68%
Rainfall in
Snow Depth Not available.
7:06 AM 5:55 PM
New Moon, 1% visible
METAR KGGE 091235Z AUTO 26007KT 10SM CLR 02/M03 A2980 RMK AO2
Pressure 29.80 in
Visibility 10.0 miles
Clouds Clear
Windchill 31 °F
Dew Point 29.0 °F
Humidity 68%
Rainfall in
Snow Depth Not available.
7:06 AM 5:55 PM
New Moon, 1% visible
METAR KGGE 091235Z AUTO 26007KT 10SM CLR 02/M03 A2980 RMK AO2

10-Day Weather Forecast

Almanac

Astronomy

Feb. 09, 2016 Rise Set
Actual Time
Civil Twilight
Nautical Twilight
Astronomical Twilight
Moon
Length of Visible Light
Length of Day
Tomorrow will be .
, % of the Moon is Illuminated

Today's Extremes

State Highs State Lows

Community

WunderPhotos

Upload Photos

1,891,589 photos uploaded!

WunderBlog® & News

Nearby

Air Quality

  Air Quality AQ Index Pollutant
Not available.

Snow Depth

Station Depth Elevation

Earthquake Activity

City Distance Mag. Time & Date
Minimum magnitude displayed is 2.5.

Coastal Water Temperatures

Place Temperature

Stations

Nearby Weather Stations

Station Location Temp. Windchill Dew Point Humidity Wind Precip. Elev Updated Type
                   

Watches & Warnings

Flood Warning
Issued: 8:35 PM EST Feb. 8, 2016 – National Weather Service

The Flood Warning continues for
the Santee river near Jamestown.
* At 7 PM Monday the stage was 13.6 feet.
* Flood stage is 10.0 feet.
* Minor flooding is occurring.
* Forecast, the river will rise to near 13.9 feet by early Tuesday
afternoon then begin a slow fall.
* At 12.0 feet, several dirt logging roads are impassable.


Lat... Lon 3347 8002 3354 7998 3325 7937 3321 7938
          3320 7951 3329 7976